Time;durP1;ratioP1;P1;durP2;ratioP2;P2;SDS_P1;SDS_P2;PMS_P1;PMS_P2;Temp;Humidity;BMP_temperature;BMP_pressure;BME280_temperature;BME280_humidity;BME280_pressure;Samples;Min_cycle;Max_cycle;Signal;HPM_P1;HPM_P2
2024/01/11 00:01:29;;;;;;;94.68;34.88;;;;;;;-4.80;90.68;102054.31;8388772;28;20033;-57
2024/01/11 00:05:30;;;;;;;64.00;25.30;;;;;;;-4.81;91.37;102051.66;8389666;28;20058;-56
2024/01/11 00:09:30;;;;;;;78.45;29.13;;;;;;;-5.25;91.55;102062.38;8384095;28;20059;-55
2024/01/11 00:13:31;;;;;;;71.75;28.58;;;;;;;-5.28;93.24;102067.66;8369568;28;20050;-55
2024/01/11 00:17:31;;;;;;;69.78;25.35;;;;;;;-5.37;92.52;102065.03;8388919;28;20078;-56
2024/01/11 00:21:32;;;;;;;86.63;29.35;;;;;;;-5.22;93.28;102065.00;8388242;28;20417;-56
2024/01/11 00:25:32;;;;;;;76.53;29.25;;;;;;;-5.21;92.84;102072.06;8388534;28;20044;-56
2024/01/11 00:29:35;;;;;;;76.82;29.08;;;;;;;-5.37;92.31;102070.31;8314313;28;20278;-55
2024/01/11 00:33:36;;;;;;;78.30;31.07;;;;;;;-5.23;92.86;102063.25;8330950;28;20310;-55
2024/01/11 00:37:36;;;;;;;79.40;29.30;;;;;;;-5.28;91.61;102070.28;8324760;28;20123;-54
2024/01/11 00:41:37;;;;;;;77.32;30.30;;;;;;;-5.22;92.29;102075.56;8325351;28;20036;-57
2024/01/11 00:45:38;;;;;;;77.50;28.77;;;;;;;-4.94;92.72;102066.66;8316951;28;20265;-56
2024/01/11 00:49:38;;;;;;;77.53;29.27;;;;;;;-4.96;90.83;102068.44;8317212;28;20374;-57
2024/01/11 00:53:39;;;;;;;76.05;28.83;;;;;;;-5.18;91.11;102064.13;8321609;28;20263;-57
2024/01/11 00:57:41;;;;;;;78.65;29.30;;;;;;;-5.18;92.11;102072.03;8375882;28;20159;-55
2024/01/11 01:01:48;;;;;;;74.75;28.58;;;;;;;-5.28;93.25;102080.84;8365441;28;20527;-56
2024/01/11 01:05:49;;;;;;;77.18;27.95;;;;;;;-5.38;93.80;102079.09;8375141;28;20051;-54
2024/01/11 01:09:50;;;;;;;72.78;27.55;;;;;;;-5.34;94.34;102075.56;8385055;28;20543;-57
2024/01/11 01:13:51;;;;;;;72.15;29.10;;;;;;;-5.32;94.47;102073.81;8378450;28;20047;-55
2024/01/11 01:17:52;;;;;;;67.05;27.35;;;;;;;-5.37;93.87;102075.59;8376474;28;20044;-55
2024/01/11 01:21:52;;;;;;;78.20;29.23;;;;;;;-5.30;94.74;102079.97;8374592;28;20044;-54
2024/01/11 01:25:54;;;;;;;75.03;27.75;;;;;;;-5.26;94.96;102068.53;8379023;28;20128;-54
2024/01/11 01:29:54;;;;;;;69.38;27.90;;;;;;;-5.39;94.20;102092.28;8376287;28;20028;-55
2024/01/11 01:33:55;;;;;;;72.53;27.30;;;;;;;-5.42;95.09;102084.38;8374717;28;20040;-54
2024/01/11 01:37:55;;;;;;;65.82;26.83;;;;;;;-5.52;95.12;102091.41;8376090;28;20127;-54
2024/01/11 01:41:56;;;;;;;66.85;27.05;;;;;;;-5.37;95.80;102098.44;8373904;28;20044;-54
2024/01/11 01:45:58;;;;;;;77.10;27.35;;;;;;;-5.26;94.92;102094.91;8376083;28;20059;-55
2024/01/11 01:49:59;;;;;;;70.55;25.83;;;;;;;-5.20;94.01;102094.88;8368773;28;20052;-56
2024/01/11 01:54:01;;;;;;;76.32;27.27;;;;;;;-5.14;94.28;102104.53;8374463;28;20527;-54
2024/01/11 01:58:03;;;;;;;78.70;27.02;;;;;;;-5.40;94.34;102106.34;8317797;28;20033;-54
2024/01/11 02:02:05;;;;;;;79.53;26.70;;;;;;;-5.53;94.55;102116.00;8353394;28;20101;-54
2024/01/11 02:06:06;;;;;;;65.28;26.42;;;;;;;-5.55;95.19;102101.97;8322970;28;20360;-54
2024/01/11 02:10:07;;;;;;;75.60;28.48;;;;;;;-5.44;96.08;102110.75;8323900;28;20316;-54
2024/01/11 02:14:08;;;;;;;69.50;27.10;;;;;;;-5.24;96.13;102116.88;8343259;28;20120;-56
2024/01/11 02:18:10;;;;;;;72.88;27.10;;;;;;;-5.64;94.71;102117.81;8346343;28;20778;-55
2024/01/11 02:22:21;;;;;;;73.18;28.90;;;;;;;-5.78;96.67;102109.00;8290834;28;20048;-54
2024/01/11 02:26:22;;;;;;;75.75;25.95;;;;;;;-5.81;97.29;102114.28;8297607;28;20051;-53
2024/01/11 02:30:22;;;;;;;69.03;27.38;;;;;;;-5.75;97.93;102114.28;8308983;28;20120;-56
2024/01/11 02:34:25;;;;;;;76.72;26.85;;;;;;;-5.92;98.06;102113.41;8308563;28;20116;-55
2024/01/11 02:38:27;;;;;;;86.03;29.30;;;;;;;-5.85;99.31;102107.28;8289405;28;20045;-55
2024/01/11 02:42:27;;;;;;;80.60;31.00;;;;;;;-5.86;98.91;102110.78;8299197;28;20733;-53
2024/01/11 02:46:28;;;;;;;76.45;29.42;;;;;;;-5.79;98.55;102114.28;8295729;28;20033;-54
2024/01/11 02:50:28;;;;;;;82.47;32.30;;;;;;;-5.82;97.91;102111.69;8288994;28;20620;-53
2024/01/11 02:54:29;;;;;;;86.47;28.98;;;;;;;-5.84;97.64;102103.78;8289902;28;20353;-54
2024/01/11 02:58:29;;;;;;;76.55;28.75;;;;;;;-5.72;97.85;102093.22;8291427;28;20041;-55
2024/01/11 03:02:30;;;;;;;70.07;27.15;;;;;;;-5.79;97.12;102088.84;8334408;28;20060;-57
2024/01/11 03:06:31;;;;;;;77.18;28.52;;;;;;;-5.66;96.72;102087.94;8341864;28;20110;-55
2024/01/11 03:10:31;;;;;;;69.32;27.88;;;;;;;-5.83;95.44;102089.72;8349386;28;20131;-56
2024/01/11 03:14:31;;;;;;;73.50;28.90;;;;;;;-5.80;96.21;102088.84;8341769;28;20045;-54
2024/01/11 03:18:32;;;;;;;74.20;27.58;;;;;;;-5.73;96.03;102080.94;8345853;28;20060;-55
2024/01/11 03:22:33;;;;;;;74.30;28.02;;;;;;;-5.96;95.85;102084.47;8349102;28;20458;-55
2024/01/11 03:26:33;;;;;;;70.90;28.83;;;;;;;-5.76;97.69;102086.19;8344639;28;20041;-56
2024/01/11 03:30:33;;;;;;;75.03;28.25;;;;;;;-5.75;99.24;102072.16;8380905;28;20041;-56
2024/01/11 03:34:34;;;;;;;71.18;26.00;;;;;;;-5.88;99.29;102066.91;8345214;28;20501;-56
2024/01/11 03:38:34;;;;;;;68.07;27.08;;;;;;;-6.04;98.68;102055.50;8348223;28;20428;-55
2024/01/11 03:42:35;;;;;;;76.00;28.20;;;;;;;-5.90;99.54;102051.13;8343827;28;20120;-57
2024/01/11 03:46:35;;;;;;;82.13;29.15;;;;;;;-5.64;100.00;102051.97;8349114;28;20128;-56
2024/01/11 03:50:36;;;;;;;87.32;29.17;;;;;;;-5.49;98.48;102059.81;8342753;28;20493;-56
2024/01/11 03:54:36;;;;;;;69.35;26.55;;;;;;;-5.62;98.76;102071.25;8344864;28;20042;-56
2024/01/11 03:58:39;;;;;;;79.88;28.75;;;;;;;-5.67;99.24;102072.13;8350708;28;20040;-57
2024/01/11 04:02:39;;;;;;;73.90;30.50;;;;;;;-5.66;100.00;102073.88;8324759;28;20528;-54
2024/01/11 04:06:40;;;;;;;76.13;27.63;;;;;;;-5.94;98.72;102077.44;8302878;28;20517;-56
2024/01/11 04:10:40;;;;;;;77.78;28.85;;;;;;;-5.82;99.19;102083.59;8317745;28;20049;-57
2024/01/11 04:14:41;;;;;;;75.90;27.92;;;;;;;-5.78;99.90;102084.44;8346553;28;20045;-58
2024/01/11 04:18:43;;;;;;;78.35;28.83;;;;;;;-6.02;99.10;102082.72;8322564;28;20102;-56
2024/01/11 04:22:44;;;;;;;73.43;27.47;;;;;;;-6.18;98.18;102083.59;8290603;28;20450;-55
2024/01/11 04:26:44;;;;;;;78.25;27.38;;;;;;;-5.98;100.00;102088.88;8290927;28;20358;-55
2024/01/11 04:30:45;;;;;;;73.97;29.60;;;;;;;-5.84;99.56;102093.25;8292582;28;20545;-56
2024/01/11 04:34:45;;;;;;;80.32;29.42;;;;;;;-6.08;97.90;102100.28;8292687;28;20235;-54
2024/01/11 04:38:46;;;;;;;70.63;28.27;;;;;;;-5.91;98.99;102102.03;8293013;28;20052;-52
2024/01/11 04:42:46;;;;;;;78.10;28.77;;;;;;;-6.08;97.67;102103.75;8292948;28;20048;-55
2024/01/11 04:46:47;;;;;;;70.40;28.23;;;;;;;-6.27;97.38;102102.88;8315992;28;20045;-57
2024/01/11 04:50:47;;;;;;;81.32;28.35;;;;;;;-6.33;97.04;102109.88;8344626;28;20119;-58
2024/01/11 04:54:47;;;;;;;73.82;27.70;;;;;;;-6.36;97.33;102125.63;8345603;28;20386;-57
2024/01/11 04:58:48;;;;;;;69.05;27.88;;;;;;;-6.31;97.00;102110.75;8345457;28;20111;-56
2024/01/11 05:02:48;;;;;;;72.32;27.20;;;;;;;-6.40;96.81;102116.00;8329933;28;20045;-56
2024/01/11 05:06:51;;;;;;;69.20;26.45;;;;;;;-6.41;96.96;102127.38;8337033;28;20037;-56
2024/01/11 05:10:51;;;;;;;77.43;29.07;;;;;;;-6.41;96.98;102130.00;8334554;28;20038;-55
2024/01/11 05:14:52;;;;;;;72.72;27.23;;;;;;;-6.50;96.55;102129.97;8339690;28;20128;-56
2024/01/11 05:18:54;;;;;;;83.57;29.27;;;;;;;-6.45;96.69;102136.13;8343855;28;20563;-56
2024/01/11 05:22:55;;;;;;;72.65;28.05;;;;;;;-6.33;96.27;102139.69;8345927;28;20033;-56
2024/01/11 05:26:55;;;;;;;68.97;26.45;;;;;;;-6.33;95.37;102144.06;8343526;28;20045;-55
2024/01/11 05:30:56;;;;;;;76.30;28.70;;;;;;;-6.36;95.10;102139.69;8335402;28;20128;-56
2024/01/11 05:34:56;;;;;;;70.55;28.70;;;;;;;-6.25;95.45;102144.97;8324623;28;20037;-56
2024/01/11 05:38:56;;;;;;;86.07;32.42;;;;;;;-6.28;94.65;102137.06;8366466;28;20056;-55
2024/01/11 05:42:57;;;;;;;85.90;29.00;;;;;;;-6.20;95.77;102140.56;8375022;28;20041;-56
2024/01/11 05:46:57;;;;;;;71.53;29.23;;;;;;;-6.14;96.63;102151.13;8340684;28;20343;-57
2024/01/11 05:50:58;;;;;;;78.65;30.80;;;;;;;-6.09;97.48;102137.97;8348139;28;20562;-56
2024/01/11 05:54:58;;;;;;;83.10;28.75;;;;;;;-5.92;97.41;102168.69;8341481;28;20040;-56
2024/01/11 05:58:59;;;;;;;78.47;28.80;;;;;;;-5.91;97.83;102170.47;8339206;28;20055;-55
2024/01/11 06:02:59;;;;;;;75.50;27.85;;;;;;;-5.98;97.49;102160.78;8347932;28;20041;-56
2024/01/11 06:07:03;;;;;;;80.03;32.80;;;;;;;-5.88;98.29;102170.47;8326599;28;20037;-56
2024/01/11 06:11:04;;;;;;;74.95;28.38;;;;;;;-5.82;97.99;102175.75;8326886;28;20606;-56
2024/01/11 06:15:05;;;;;;;75.47;29.50;;;;;;;-5.91;97.32;102162.56;8334196;28;20040;-56
2024/01/11 06:19:07;;;;;;;97.75;30.27;;;;;;;-5.70;99.00;102183.63;8344562;28;20535;-56
2024/01/11 06:23:07;;;;;;;90.88;28.88;;;;;;;-5.64;98.29;102181.00;8357911;28;20465;-56
2024/01/11 06:27:08;;;;;;;71.35;27.88;;;;;;;-5.72;96.98;102188.00;8362036;28;20033;-55
2024/01/11 06:31:10;;;;;;;77.13;28.20;;;;;;;-5.75;96.60;102192.38;8361517;28;20515;-57
2024/01/11 06:35:10;;;;;;;84.72;29.92;;;;;;;-5.97;96.15;102191.53;8357600;28;20037;-54
2024/01/11 06:39:12;;;;;;;87.10;29.63;;;;;;;-6.08;95.70;102198.50;8380069;28;20053;-55
2024/01/11 06:43:12;;;;;;;79.82;29.08;;;;;;;-5.96;96.04;102209.06;8319486;28;20037;-54
2024/01/11 06:47:13;;;;;;;74.50;26.70;;;;;;;-5.86;96.70;102205.56;8366641;28;20084;-54
2024/01/11 06:51:16;;;;;;;68.50;26.02;;;;;;;-6.29;95.25;102208.97;8369445;28;20500;-55
2024/01/11 06:55:16;;;;;;;77.88;27.92;;;;;;;-6.23;96.86;102203.72;8376804;28;20090;-55
2024/01/11 06:59:16;;;;;;;82.90;29.60;;;;;;;-6.31;96.55;102211.59;8374580;28;20037;-55
2024/01/11 07:03:17;;;;;;;90.07;33.33;;;;;;;-6.28;96.84;102223.88;8375426;28;20040;-55
2024/01/11 07:07:18;;;;;;;85.35;31.52;;;;;;;-6.24;97.32;102217.75;8379154;28;20028;-56
2024/01/11 07:11:18;;;;;;;87.57;33.60;;;;;;;-6.28;97.45;102216.84;8376352;28;20036;-55
2024/01/11 07:15:19;;;;;;;83.65;30.17;;;;;;;-6.34;97.74;102210.72;8378146;28;20321;-54
2024/01/11 07:19:19;;;;;;;88.70;32.53;;;;;;;-6.22;98.79;102211.63;8376459;28;20560;-55
2024/01/11 07:23:20;;;;;;;92.25;33.30;;;;;;;-6.14;99.72;102203.75;8379005;28;20040;-57
2024/01/11 07:27:20;;;;;;;97.20;34.30;;;;;;;-5.99;99.99;102203.78;8373091;28;20043;-54
2024/01/11 07:31:21;;;;;;;77.85;32.63;;;;;;;-6.13;99.32;102205.53;8378890;28;20098;-55
2024/01/11 07:35:23;;;;;;;87.97;31.80;;;;;;;-6.32;98.44;102211.56;8378203;28;20035;-54
2024/01/11 07:39:24;;;;;;;86.30;31.63;;;;;;;-6.41;98.35;102198.38;8375441;28;20523;-54
2024/01/11 07:43:26;;;;;;;99.18;32.97;;;;;;;-6.42;98.63;102187.00;8377935;28;20392;-55
2024/01/11 07:47:26;;;;;;;92.00;32.92;;;;;;;-6.08;99.16;102203.75;8376274;28;20120;-55
2024/01/11 07:51:28;;;;;;;97.97;33.75;;;;;;;-5.84;98.26;102221.38;8374273;28;20037;-54
2024/01/11 07:55:28;;;;;;;94.65;31.17;;;;;;;-5.74;98.15;102221.34;8378243;28;20094;-54
2024/01/11 07:59:36;;;;;;;81.45;30.50;;;;;;;-5.71;98.08;102234.53;8377485;28;20090;-56
2024/01/11 08:03:36;;;;;;;93.63;30.08;;;;;;;-5.63;98.39;102250.34;8377489;28;20519;-55
2024/01/11 08:07:37;;;;;;;82.95;28.90;;;;;;;-5.62;98.41;102260.88;8377260;28;20436;-55
2024/01/11 08:11:37;;;;;;;92.18;31.00;;;;;;;-5.94;97.38;102273.13;8377187;28;20036;-55
2024/01/11 08:15:38;;;;;;;83.65;30.42;;;;;;;-5.95;98.61;102284.50;8375033;28;20052;-55
2024/01/11 08:19:38;;;;;;;95.47;31.95;;;;;;;-5.84;98.68;102272.28;8373972;28;20119;-56
2024/01/11 08:23:44;;;;;;;93.35;31.75;;;;;;;-5.59;98.85;102263.53;8374292;28;20520;-55
2024/01/11 08:27:46;;;;;;;89.65;31.48;;;;;;;-5.62;98.58;102265.28;8376576;28;20044;-55
2024/01/11 08:31:47;;;;;;;89.03;32.42;;;;;;;-5.51;98.35;102251.25;8374270;28;20037;-55
2024/01/11 08:35:47;;;;;;;104.00;35.38;;;;;;;-5.15;99.26;102253.91;8375933;28;20047;-55
2024/01/11 08:39:48;;;;;;;115.88;42.03;;;;;;;-4.94;98.83;102243.31;8375749;28;20036;-55
2024/01/11 08:43:49;;;;;;;112.38;38.35;;;;;;;-4.82;97.10;102250.38;8373013;28;20033;-56
2024/01/11 08:47:49;;;;;;;93.82;37.95;;;;;;;-4.50;97.75;102244.13;8375390;28;20044;-55
2024/01/11 08:51:50;;;;;;;103.07;37.53;;;;;;;-3.49;96.22;102245.34;8372442;28;20044;-55
2024/01/11 08:55:50;;;;;;;126.72;42.20;;;;;;;-2.09;87.96;102231.63;8372113;28;20045;-55
2024/01/11 08:59:50;;;;;;;110.95;40.50;;;;;;;-1.13;81.83;102246.09;8372820;28;20048;-57
2024/01/11 09:03:51;;;;;;;97.78;35.65;;;;;;;-0.66;78.81;102238.19;8375114;28;20037;-56
2024/01/11 09:07:51;;;;;;;95.47;35.75;;;;;;;-0.09;76.48;102237.03;8373151;28;20051;-56
2024/01/11 09:11:52;;;;;;;96.40;36.30;;;;;;;0.82;73.70;102233.16;8372928;28;20053;-56
2024/01/11 09:15:53;;;;;;;102.35;34.30;;;;;;;0.97;71.46;102239.91;8375500;28;20404;-56
2024/01/11 09:19:54;;;;;;;92.22;33.25;;;;;;;1.14;70.49;102232.38;8370870;28;20048;-56
2024/01/11 09:23:55;;;;;;;89.68;33.47;;;;;;;1.17;70.09;102249.16;8374721;28;20056;-56
2024/01/11 09:27:55;;;;;;;96.43;35.28;;;;;;;1.14;70.27;102259.91;8372120;28;20041;-56
2024/01/11 09:31:55;;;;;;;89.93;33.35;;;;;;;1.22;69.98;102267.69;8374765;28;20488;-57
2024/01/11 09:35:56;;;;;;;86.57;34.00;;;;;;;1.47;69.56;102264.31;8373757;28;20499;-57
2024/01/11 09:39:56;;;;;;;88.45;33.40;;;;;;;1.65;69.08;102263.81;8374641;28;20401;-57
2024/01/11 09:44:00;;;;;;;105.75;35.05;;;;;;;1.95;67.08;102262.09;8373769;28;20044;-57
2024/01/11 09:48:02;;;;;;;92.90;35.17;;;;;;;2.26;66.22;102260.31;8369584;28;20040;-55
2024/01/11 09:52:04;;;;;;;80.38;34.38;;;;;;;3.01;65.26;102255.22;8371855;28;20036;-55
2024/01/11 09:56:08;;;;;;;92.03;33.30;;;;;;;2.80;64.52;102274.59;8374588;28;20516;-56
2024/01/11 10:00:09;;;;;;;;;;;;;;;2.65;64.54;102283.09;8374769;28;20028;-55
2024/01/11 10:04:12;;;;;;;89.57;34.10;;;;;;;3.23;63.98;102280.28;8371002;28;19916;-56
2024/01/11 10:08:12;;;;;;;81.05;32.95;;;;;;;3.07;64.07;102284.41;8373375;28;20036;-56
2024/01/11 10:12:13;;;;;;;77.68;32.97;;;;;;;3.23;63.81;102288.31;8377979;28;20033;-57
2024/01/11 10:16:15;;;;;;;83.55;34.22;;;;;;;3.93;62.52;102274.25;8372086;28;20067;-56
2024/01/11 10:20:16;;;;;;;80.78;32.63;;;;;;;3.92;60.89;102269.81;8374088;28;20505;-57
2024/01/11 10:24:20;;;;;;;84.93;32.75;;;;;;;3.78;61.66;102269.44;8378888;28;20446;-57
2024/01/11 10:28:20;;;;;;;81.27;34.13;;;;;;;4.28;62.08;102266.69;8377125;28;20029;-57
2024/01/11 10:32:21;;;;;;;84.43;33.65;;;;;;;4.77;60.20;102269.22;8380766;28;20067;-57
2024/01/11 10:36:21;;;;;;;85.53;33.17;;;;;;;4.49;61.45;102264.09;8377835;28;20039;-57
2024/01/11 10:40:25;;;;;;;74.57;30.63;;;;;;;5.18;59.71;102263.91;8378572;28;20040;-55
2024/01/11 10:44:30;;;;;;;80.60;32.90;;;;;;;5.46;58.63;102247.53;8376967;28;20037;-57
2024/01/11 10:48:32;;;;;;;84.60;34.63;;;;;;;5.16;59.20;102249.69;8379237;28;20420;-57
2024/01/11 10:52:38;;;;;;;80.25;33.38;;;;;;;4.67;60.94;102262.50;8373371;28;20526;-56
2024/01/11 10:56:40;;;;;;;76.93;33.72;;;;;;;4.34;61.61;102255.75;8377370;28;20069;-56
2024/01/11 11:00:41;;;;;;;80.93;33.33;;;;;;;3.45;62.66;102270.63;8378813;28;20052;-56
2024/01/11 11:04:42;;;;;;;87.20;35.08;;;;;;;2.55;66.39;102268.28;8379474;28;20040;-56
2024/01/11 11:08:44;;;;;;;86.35;35.95;;;;;;;3.21;65.98;102271.47;8375338;28;20037;-56
2024/01/11 11:12:46;;;;;;;82.78;33.70;;;;;;;3.23;65.22;102276.78;8379037;28;20044;-57
2024/01/11 11:16:47;;;;;;;100.82;36.67;;;;;;;3.40;65.18;102274.38;8375604;28;20060;-57
2024/01/11 11:20:47;;;;;;;80.75;34.92;;;;;;;3.03;65.46;102280.09;8375058;28;20620;-57
2024/01/11 11:24:48;;;;;;;93.30;36.85;;;;;;;2.31;67.87;102298.38;8378444;28;20037;-56
2024/01/11 11:28:50;;;;;;;88.15;35.83;;;;;;;1.90;70.17;102306.72;8382678;28;20491;-57
2024/01/11 11:32:51;;;;;;;79.45;36.40;;;;;;;2.30;69.45;102285.09;8399035;28;20110;-56
2024/01/11 11:36:55;;;;;;;87.45;38.35;;;;;;;3.09;67.39;102295.03;8375786;28;20044;-56
2024/01/11 11:40:58;;;;;;;79.43;34.15;;;;;;;2.69;67.97;102291.91;8376255;28;20033;-57
2024/01/11 11:44:59;;;;;;;84.37;35.73;;;;;;;2.39;69.11;102287.47;8378237;28;20457;-56
2024/01/11 11:48:59;;;;;;;89.80;35.78;;;;;;;2.30;69.84;102285.97;8371610;28;20028;-56
2024/01/11 11:53:04;;;;;;;103.22;37.67;;;;;;;2.53;70.64;102271.94;8377064;28;20393;-56
2024/01/11 11:57:04;;;;;;;;;;;;;;;3.02;69.12;102269.47;8377845;28;20041;-56
2024/01/11 12:01:05;;;;;;;84.22;34.92;;;;;;;3.65;66.73;102270.81;8377401;28;20364;-56
2024/01/11 12:05:05;;;;;;;85.53;32.40;;;;;;;3.82;65.67;102264.88;8375305;28;20494;-56
2024/01/11 12:09:06;;;;;;;77.95;35.03;;;;;;;4.01;64.95;102264.13;8375941;28;20413;-56
2024/01/11 12:13:06;;;;;;;78.57;34.90;;;;;;;4.08;64.18;102260.31;8376767;28;20512;-56
2024/01/11 12:17:09;;;;;;;83.88;35.60;;;;;;;3.67;65.17;102263.63;8373272;28;20589;-55
2024/01/11 12:21:09;;;;;;;83.70;34.53;;;;;;;2.55;68.51;102278.09;8374636;28;20033;-56
2024/01/11 12:25:10;;;;;;;73.05;32.67;;;;;;;1.62;72.30;102289.72;8374419;28;20329;-56
2024/01/11 12:29:11;;;;;;;94.20;33.75;;;;;;;1.02;74.22;102283.28;8377499;28;20295;-56
2024/01/11 12:33:12;;;;;;;78.53;34.17;;;;;;;0.80;77.26;102274.06;8373456;28;20550;-56
2024/01/11 12:37:15;;;;;;;84.35;34.58;;;;;;;0.79;77.82;102267.84;8367904;28;20041;-56
2024/01/11 12:41:15;;;;;;;90.25;34.00;;;;;;;0.76;76.78;102269.72;8381441;28;20093;-57
2024/01/11 12:45:17;;;;;;;99.72;36.63;;;;;;;0.73;78.04;102261.81;8390350;28;20047;-57
2024/01/11 12:49:17;;;;;;;99.95;38.45;;;;;;;0.77;78.89;102253.72;8390974;28;20033;-57
2024/01/11 12:53:18;;;;;;;103.25;37.90;;;;;;;0.78;78.70;102234.16;8389196;28;20512;-56
2024/01/11 12:57:19;;;;;;;94.72;36.38;;;;;;;0.68;78.78;102227.31;8392147;28;20078;-57
2024/01/11 13:01:20;;;;;;;93.38;36.33;;;;;;;0.73;78.89;102219.22;8392530;28;20492;-57
2024/01/11 13:05:21;;;;;;;92.20;36.22;;;;;;;0.64;79.04;102214.13;8383097;28;20044;-55
2024/01/11 13:09:22;;;;;;;88.20;37.28;;;;;;;0.64;79.71;102225.63;8374072;28;20044;-55
2024/01/11 13:13:23;;;;;;;97.68;36.67;;;;;;;0.79;79.73;102229.72;8372292;28;20047;-56
2024/01/11 13:17:24;;;;;;;95.28;35.13;;;;;;;0.80;79.46;102231.47;8368062;28;20033;-55
2024/01/11 13:21:24;;;;;;;104.00;38.80;;;;;;;0.62;79.37;102226.59;8368015;28;20361;-57
2024/01/11 13:25:25;;;;;;;95.57;36.28;;;;;;;0.79;80.63;102248.38;8370422;28;20108;-56
2024/01/11 13:29:26;;;;;;;97.15;35.15;;;;;;;0.72;79.24;102244.06;8373352;28;20028;-57
2024/01/11 13:33:26;;;;;;;92.53;37.85;;;;;;;0.66;79.59;102244.22;8368099;28;20037;-55
2024/01/11 13:37:26;;;;;;;100.03;38.13;;;;;;;0.86;81.09;102249.97;8368788;28;20429;-57
2024/01/11 13:41:29;;;;;;;100.97;41.55;;;;;;;0.84;79.53;102254.44;8369665;28;20671;-56
2024/01/11 13:45:30;;;;;;;102.50;38.33;;;;;;;0.84;78.70;102246.44;8370468;28;20033;-56
2024/01/11 13:49:31;;;;;;;94.30;38.83;;;;;;;0.92;79.91;102252.47;8368372;28;20129;-56
2024/01/11 13:53:31;;;;;;;121.93;45.38;;;;;;;0.91;80.08;102261.38;8371179;28;20121;-57
2024/01/11 13:57:33;;;;;;;123.93;44.20;;;;;;;1.00;79.77;102261.13;8374712;28;20045;-55
2024/01/11 14:01:34;;;;;;;125.82;47.90;;;;;;;0.98;80.48;102257.66;8377551;28;20040;-57
2024/01/11 14:05:35;;;;;;;119.78;47.35;;;;;;;1.02;80.23;102253.97;8377011;28;20127;-56
2024/01/11 14:09:38;;;;;;;100.53;40.88;;;;;;;1.08;80.79;102251.16;8374778;28;20044;-57
2024/01/11 14:13:38;;;;;;;94.35;39.25;;;;;;;1.00;80.54;102250.47;8374821;28;20497;-56
2024/01/11 14:17:39;;;;;;;86.90;37.15;;;;;;;1.02;81.04;102253.97;8377686;28;20461;-56
2024/01/11 14:21:40;;;;;;;100.93;39.95;;;;;;;1.03;80.82;102247.72;8373641;28;20051;-57
2024/01/11 14:25:40;;;;;;;101.15;40.47;;;;;;;1.04;80.61;102241.53;8376261;28;20072;-56
2024/01/11 14:29:41;;;;;;;98.05;39.97;;;;;;;1.04;80.24;102253.03;8374700;28;20040;-56
2024/01/11 14:33:42;;;;;;;105.97;41.00;;;;;;;1.05;80.61;102259.22;8377623;28;20040;-55
2024/01/11 14:37:44;;;;;;;103.45;40.20;;;;;;;1.13;81.30;102243.94;8374676;28;20051;-57
2024/01/11 14:41:45;;;;;;;100.63;41.95;;;;;;;1.09;80.20;102240.47;8375216;28;20045;-56
2024/01/11 14:45:46;;;;;;;96.57;42.22;;;;;;;1.08;80.08;102232.53;8376090;28;20401;-55
2024/01/11 14:49:46;;;;;;;100.25;38.45;;;;;;;1.12;80.05;102239.50;8374119;28;20041;-57
2024/01/11 14:53:47;;;;;;;102.97;39.22;;;;;;;1.08;80.80;102246.72;8373942;28;20045;-55
2024/01/11 14:57:47;;;;;;;98.30;37.88;;;;;;;1.03;81.02;102251.28;8372602;28;20527;-57
2024/01/11 15:01:48;;;;;;;96.53;36.85;;;;;;;0.95;80.77;102252.41;8373502;28;20037;-56
2024/01/11 15:05:48;;;;;;;93.90;36.78;;;;;;;0.89;79.63;102247.22;8376155;28;20040;-55
2024/01/11 15:09:49;;;;;;;85.88;36.72;;;;;;;0.87;79.34;102241.03;8373618;28;20045;-56
2024/01/11 15:13:50;;;;;;;86.72;36.42;;;;;;;0.87;79.66;102243.72;8373697;28;20033;-55
2024/01/11 15:17:51;;;;;;;98.38;35.72;;;;;;;0.73;80.03;102244.03;8375418;28;20041;-57
2024/01/11 15:21:52;;;;;;;93.18;37.00;;;;;;;0.66;80.42;102257.53;8371487;28;20551;-55
2024/01/11 15:25:53;;;;;;;95.00;37.53;;;;;;;0.68;78.90;102261.03;8378130;28;20409;-55
2024/01/11 15:29:53;;;;;;;90.40;36.40;;;;;;;0.62;78.70;102263.84;8378860;28;20123;-54
2024/01/11 15:33:54;;;;;;;91.75;36.53;;;;;;;0.59;79.19;102272.78;8408484;28;20036;-55
2024/01/11 15:37:55;;;;;;;84.72;33.85;;;;;;;0.53;78.21;102261.38;8388628;28;20032;-55
2024/01/11 15:41:56;;;;;;;83.75;36.08;;;;;;;0.30;79.79;102258.38;8386750;28;20036;-55
2024/01/11 15:45:57;;;;;;;90.53;34.95;;;;;;;0.23;79.78;102252.31;8380752;28;20554;-56
2024/01/11 15:49:59;;;;;;;86.95;34.33;;;;;;;0.16;80.82;102253.34;8370444;28;20043;-56
2024/01/11 15:53:59;;;;;;;88.18;34.67;;;;;;;0.12;80.53;102256.97;8375919;28;20048;-55
2024/01/11 15:58:00;;;;;;;91.78;35.22;;;;;;;-0.06;81.49;102260.91;8378062;28;20337;-55
2024/01/11 16:02:01;;;;;;;88.45;37.00;;;;;;;-0.15;82.27;102282.34;8385253;28;20093;-56
2024/01/11 16:06:01;;;;;;;88.72;37.03;;;;;;;0.03;81.46;102297.94;8367114;28;20062;-56
2024/01/11 16:10:02;;;;;;;86.05;36.05;;;;;;;0.18;79.98;102309.16;8368559;28;20329;-55
2024/01/11 16:14:03;;;;;;;75.45;31.85;;;;;;;0.20;79.07;102324.16;8370898;28;20052;-55
2024/01/11 16:18:04;;;;;;;71.13;29.33;;;;;;;0.19;79.05;102327.75;8367028;28;20382;-55
2024/01/11 16:22:04;;;;;;;85.20;31.38;;;;;;;-0.01;80.64;102325.50;8365960;28;20483;-54
2024/01/11 16:26:07;;;;;;;78.65;31.35;;;;;;;-0.13;81.24;102325.72;8360978;28;20036;-57
2024/01/11 16:30:09;;;;;;;75.50;31.65;;;;;;;-0.12;81.58;102335.44;8352487;28;20045;-55
2024/01/11 16:34:11;;;;;;;77.13;30.33;;;;;;;-0.16;81.96;102336.41;8381424;28;20206;-56
2024/01/11 16:38:12;;;;;;;79.18;30.42;;;;;;;-0.37;82.78;102331.50;8385047;28;20043;-55
2024/01/11 16:42:13;;;;;;;73.35;29.63;;;;;;;-0.45;83.80;102332.53;8376579;28;20040;-56
2024/01/11 16:46:20;;;;;;;67.38;28.67;;;;;;;-0.43;83.45;102342.22;8375934;28;20037;-54
2024/01/11 16:50:21;;;;;;;71.57;29.95;;;;;;;-0.51;83.27;102335.31;8373244;28;20492;-54
2024/01/11 16:54:21;;;;;;;82.90;34.13;;;;;;;-0.79;84.90;102315.44;8369009;28;20048;-56
2024/01/11 16:58:22;;;;;;;92.30;36.92;;;;;;;-0.87;85.22;102322.63;8366450;28;20812;-54
2024/01/11 17:02:22;;;;;;;72.57;30.38;;;;;;;-0.77;86.07;102330.41;8378213;28;20094;-56
2024/01/11 17:06:23;;;;;;;82.80;34.20;;;;;;;-0.83;85.94;102324.31;8373834;28;20051;-55
2024/01/11 17:10:23;;;;;;;72.78;31.50;;;;;;;-1.02;86.00;102334.38;8357874;28;20033;-55
2024/01/11 17:14:24;;;;;;;83.68;37.28;;;;;;;-1.14;86.49;102338.97;8368133;28;20047;-59
2024/01/11 17:18:24;;;;;;;79.22;32.15;;;;;;;-1.05;86.25;102329.13;8366574;28;20044;-57
2024/01/11 17:22:25;;;;;;;72.20;28.58;;;;;;;-0.97;84.08;102326.34;8357213;28;20032;-56
2024/01/11 17:26:28;;;;;;;57.22;26.83;;;;;;;-0.90;83.37;102326.22;8360889;28;20084;-57
2024/01/11 17:30:28;;;;;;;52.47;24.58;;;;;;;-0.97;83.29;102340.50;8362453;28;20032;-55
2024/01/11 17:34:28;;;;;;;68.00;28.10;;;;;;;-1.01;83.45;102333.47;8361623;28;20044;-55
2024/01/11 17:38:29;;;;;;;58.38;25.90;;;;;;;-1.00;83.57;102351.16;8360676;28;20117;-56
2024/01/11 17:42:30;;;;;;;80.75;31.25;;;;;;;-1.19;84.03;102336.38;8362796;28;20060;-55
2024/01/11 17:46:30;;;;;;;89.72;39.63;;;;;;;-1.27;84.80;102338.28;8361651;28;20120;-56
2024/01/11 17:50:32;;;;;;;79.07;31.17;;;;;;;-1.18;84.79;102335.50;8356307;28;20091;-55
2024/01/11 17:54:34;;;;;;;72.30;28.97;;;;;;;-1.25;84.67;102336.47;8355372;28;20056;-57
2024/01/11 17:58:36;;;;;;;70.70;26.83;;;;;;;-1.28;84.08;102348.94;8362901;28;20247;-57
2024/01/11 18:02:36;;;;;;;66.70;27.27;;;;;;;-1.25;84.56;102352.41;8369653;28;20040;-57
2024/01/11 18:06:37;;;;;;;66.32;27.10;;;;;;;-1.47;85.25;102356.25;8373281;28;20079;-57
2024/01/11 18:10:38;;;;;;;87.10;34.17;;;;;;;-1.64;85.64;102368.84;8375831;28;20055;-56
2024/01/11 18:14:38;;;;;;;78.32;28.30;;;;;;;-1.54;86.00;102359.00;8365849;28;20508;-56
2024/01/11 18:18:39;;;;;;;62.85;26.50;;;;;;;-1.41;85.68;102350.84;8362659;28;20551;-57